Terminal Aerodrome Forecast
Issued by NWS Wichita, KS

Home | Current Version | Previous Version | Graphics & Text | Print | Product List | Glossary On
Versions: 1 2 3 4 5 6 7 8 9 10 11 12 13 14 15 16 17
592
FTUS43 KICT 241732
TAFICT
TAF
KICT 241732Z 2418/2518 17014KT P6SM VCTS SCT025 BKN080CB
     FM242100 17014KT P6SM -SHRA VCTS BKN040CB
     FM250100 15008KT P6SM -SHRA VCTS BKN040CB
     FM250600 29004KT P6SM -SHRA OVC040
     FM251100 VRB05KT P6SM -SHRA OVC030
     FM251600 34010KT P6SM -SHRA VCTS OVC030CB=

USA.gov is the U.S. government's official web portal to all federal, state and local government web resources and services.